createdAt,value
2022-12-01T00:00:29.298Z,103084.44
2022-12-01T00:05:44.484Z,103081.00
2022-12-01T00:10:47.279Z,103092.00
2022-12-01T00:15:50.603Z,103084.25
2022-12-01T00:20:58.710Z,103081.22
2022-12-01T00:42:12.902Z,103074.44
2022-12-01T00:47:17.017Z,103083.13
2022-12-01T00:52:21.157Z,103088.84
2022-12-01T00:57:29.252Z,103086.34
2022-12-01T01:02:32.266Z,103095.50
2022-12-01T01:07:35.115Z,103092.38
2022-12-01T01:12:43.480Z,103084.53
2022-12-01T01:17:46.378Z,103092.78
2022-12-01T01:22:49.204Z,103085.78
2022-12-01T01:27:58.594Z,103093.22
2022-12-01T01:33:01.439Z,103103.22
2022-12-01T01:38:04.736Z,103101.59
2022-12-01T01:48:55.030Z,103094.72
2022-12-01T01:54:03.454Z,103091.47
2022-12-01T01:59:08.144Z,103100.63
2022-12-01T02:04:18.524Z,103099.00
2022-12-01T02:09:21.327Z,103095.25
2022-12-01T02:20:49.039Z,103098.38
2022-12-01T02:31:52.681Z,103096.19
2022-12-01T02:37:00.307Z,103100.56
2022-12-01T02:42:08.343Z,103105.50
2022-12-01T02:47:20.483Z,103104.63
2022-12-01T02:52:26.755Z,103101.84
2022-12-01T02:57:32.642Z,103099.03
2022-12-01T03:02:53.987Z,103091.75
2022-12-01T03:08:04.243Z,103091.47
2022-12-01T03:18:44.413Z,103085.56
2022-12-01T03:23:53.237Z,103091.34
2022-12-01T03:29:00.862Z,103086.81
2022-12-01T03:34:15.526Z,103088.56
2022-12-01T03:39:21.998Z,103095.66
2022-12-01T03:44:32.603Z,103097.59
2022-12-01T03:49:42.286Z,103103.91
2022-12-01T03:54:52.963Z,103093.94
2022-12-01T04:00:01.614Z,103097.50
2022-12-01T04:10:24.623Z,103088.44
2022-12-01T04:15:29.488Z,103088.00
2022-12-01T04:20:32.261Z,103083.78
2022-12-01T04:25:40.284Z,103089.28
2022-12-01T04:30:43.044Z,103084.78
2022-12-01T04:35:45.875Z,103088.41
2022-12-01T04:40:53.981Z,103081.41
2022-12-01T04:45:56.723Z,103097.56
2022-12-01T04:50:59.727Z,103102.06
2022-12-01T04:56:08.458Z,103107.44
2022-12-01T05:06:33.929Z,103111.53
2022-12-01T05:11:36.738Z,103113.88
2022-12-01T05:16:40.697Z,103115.50
2022-12-01T05:37:53.678Z,103119.00
2022-12-01T05:42:57.199Z,103120.38
2022-12-01T05:48:01.771Z,103119.38
2022-12-01T05:53:14.574Z,103128.44
2022-12-01T05:58:24.149Z,103133.91
2022-12-01T06:03:30.022Z,103127.78
2022-12-01T06:13:58.861Z,103128.25
2022-12-01T06:19:02.139Z,103133.16
2022-12-01T06:24:05.542Z,103135.00
2022-12-01T06:29:14.121Z,103138.53
2022-12-01T06:39:35.917Z,103145.03
2022-12-01T06:44:39.694Z,103143.72
2022-12-01T06:49:42.575Z,103146.50
2022-12-01T06:54:57.421Z,103146.69
2022-12-01T07:00:00.905Z,103149.38
2022-12-01T07:05:03.986Z,103158.41
2022-12-01T07:10:14.024Z,103165.44
2022-12-01T07:20:40.632Z,103162.41
2022-12-01T07:31:24.244Z,103168.00
2022-12-01T07:36:27.666Z,103164.66
2022-12-01T07:46:54.463Z,103174.25
2022-12-01T07:57:17.942Z,103179.91
2022-12-01T08:02:20.842Z,103183.44
2022-12-01T08:18:08.823Z,103191.25
2022-12-01T08:23:12.370Z,103194.34
2022-12-01T08:33:38.843Z,103192.66
2022-12-01T08:38:46.465Z,103190.47
2022-12-01T08:43:58.429Z,103189.63
2022-12-01T08:49:08.145Z,103199.31
2022-12-01T08:54:13.288Z,103202.66
2022-12-01T08:59:16.570Z,103199.69
2022-12-01T09:04:27.414Z,103197.94
2022-12-01T09:14:59.260Z,103207.34
2022-12-01T09:20:02.168Z,103214.84
2022-12-01T09:25:06.555Z,103211.97
2022-12-01T09:35:39.838Z,103216.72
2022-12-01T09:46:08.991Z,103216.63
2022-12-01T09:51:15.643Z,103212.50
2022-12-01T10:02:06.965Z,103210.63
2022-12-01T10:07:20.144Z,103207.06
2022-12-01T10:17:58.429Z,103194.97
2022-12-01T10:23:20.437Z,103197.25
2022-12-01T10:34:14.770Z,103199.72
2022-12-01T10:39:21.978Z,103188.31
2022-12-01T10:49:49.444Z,103171.22
2022-12-01T11:05:59.108Z,103166.38
2022-12-01T11:16:43.120Z,103161.22
2022-12-01T11:27:17.511Z,103159.00
2022-12-01T11:32:23.762Z,103159.31
2022-12-01T11:56:44.527Z,103157.47
2022-12-01T12:02:18.369Z,103157.25
2022-12-01T12:07:30.444Z,103156.94
2022-12-01T12:18:46.833Z,103150.72
2022-12-01T12:30:02.454Z,103148.44
2022-12-01T12:35:25.755Z,103155.00
2022-12-01T12:51:39.960Z,103139.81
2022-12-01T12:56:48.403Z,103144.56
2022-12-01T13:02:03.245Z,103133.03
2022-12-01T13:07:32.362Z,103144.66
2022-12-01T13:12:42.579Z,103139.16
2022-12-01T13:28:46.268Z,103143.59
2022-12-01T13:39:24.015Z,103135.09
2022-12-01T13:44:36.991Z,103135.00
2022-12-01T13:49:43.707Z,103138.97
2022-12-01T13:55:25.132Z,103144.56
2022-12-01T14:00:34.103Z,103148.87
2022-12-01T14:11:23.092Z,103139.59
2022-12-01T14:16:26.520Z,103139.28
2022-12-01T14:21:47.408Z,103145.00
2022-12-01T14:26:58.944Z,103142.72
2022-12-01T14:32:26.096Z,103139.38
2022-12-01T14:37:39.755Z,103133.25
2022-12-01T14:42:54.245Z,103138.84
2022-12-01T14:53:27.775Z,103124.19
2022-12-01T14:58:33.098Z,103125.56
2022-12-01T15:09:33.596Z,103134.22
2022-12-01T15:20:02.442Z,103132.59
2022-12-01T15:25:15.389Z,103133.22
2022-12-01T15:46:15.251Z,103128.41
2022-12-01T16:02:09.127Z,103115.03
2022-12-01T16:07:13.302Z,103117.50
2022-12-01T16:18:02.278Z,103106.75
2022-12-01T16:39:11.546Z,103121.59
2022-12-01T16:44:31.141Z,103123.19
2022-12-01T16:49:34.834Z,103116.38
2022-12-01T17:05:42.820Z,103121.78
2022-12-01T17:10:47.774Z,103109.84
2022-12-01T17:16:00.074Z,103117.78
2022-12-01T17:21:13.422Z,103114.78
2022-12-01T17:26:18.705Z,103113.91
2022-12-01T17:31:21.871Z,103119.22
2022-12-01T17:36:31.050Z,103123.62
2022-12-01T17:46:53.376Z,103129.13
2022-12-01T18:02:44.951Z,103139.69
2022-12-01T18:07:48.970Z,103145.37
2022-12-01T18:18:15.728Z,103139.56
2022-12-01T18:23:18.482Z,103145.06
2022-12-01T18:28:21.226Z,103144.00
2022-12-01T18:33:32.369Z,103150.91
2022-12-01T18:38:35.455Z,103149.72
2022-12-01T18:43:38.975Z,103145.84
2022-12-01T18:54:15.152Z,103148.53
2022-12-01T18:59:19.834Z,103151.56
2022-12-01T19:15:04.478Z,103155.66
2022-12-01T19:25:28.562Z,103145.84
2022-12-01T19:30:32.042Z,103140.91
2022-12-01T19:35:36.104Z,103141.75
2022-12-01T19:40:44.432Z,103140.91
2022-12-01T19:51:14.338Z,103127.13
2022-12-01T19:56:17.494Z,103137.66
2022-12-01T20:01:22.833Z,103132.59
2022-12-01T20:06:33.270Z,103138.19
2022-12-01T20:11:37.069Z,103138.28
2022-12-01T20:22:02.769Z,103138.94
2022-12-01T20:27:05.551Z,103139.25
2022-12-01T20:32:08.465Z,103127.63
2022-12-01T20:37:18.304Z,103126.97
2022-12-01T20:42:21.167Z,103128.06
2022-12-01T20:47:23.932Z,103122.88
2022-12-01T20:52:32.206Z,103124.50
2022-12-01T21:02:58.995Z,103127.41
2022-12-01T21:13:27.060Z,103125.72
2022-12-01T21:18:41.025Z,103123.41
2022-12-01T21:23:43.752Z,103113.63
2022-12-01T21:28:52.184Z,103106.62
2022-12-01T21:33:55.180Z,103112.78
2022-12-01T21:39:12.624Z,103109.22
2022-12-01T21:55:33.787Z,103108.37
2022-12-01T22:06:29.200Z,103115.59
2022-12-01T22:11:26.367Z,103107.81
2022-12-01T22:16:32.227Z,103111.25
2022-12-01T22:21:45.697Z,103113.84
2022-12-01T22:26:50.399Z,103112.03
2022-12-01T22:32:01.311Z,103103.41
2022-12-01T22:37:17.777Z,103103.75
2022-12-01T22:42:23.313Z,103102.88
2022-12-01T22:47:29.571Z,103112.00
2022-12-01T22:52:41.498Z,103098.53
2022-12-01T22:57:45.178Z,103096.06
2022-12-01T23:02:51.623Z,103091.78
2022-12-01T23:08:08.224Z,103097.03
2022-12-01T23:23:56.167Z,103093.81
2022-12-01T23:29:00.185Z,103096.06
2022-12-01T23:34:02.934Z,103091.66
2022-12-01T23:39:15.205Z,103081.75
2022-12-01T23:44:22.458Z,103084.44
2022-12-01T23:49:29.839Z,103088.22
2022-12-01T23:54:39.872Z,103076.59
2022-12-01T23:59:44.049Z,103067.66
